sensor_id;sensor_type;location;lat;lon;timestamp;pressure;altitude;pressure_sealevel;temperature;humidity
45403;BME280;47427;51.976;5.326;2023-03-29T00:00:08;101601.47;;;5.70;100.00
45403;BME280;47427;51.976;5.326;2023-03-29T00:03:35;101593.72;;;5.72;100.00
45403;BME280;47427;51.976;5.326;2023-03-29T00:07:00;101589.34;;;5.71;100.00
45403;BME280;47427;51.976;5.326;2023-03-29T00:10:24;101607.44;;;5.69;100.00
45403;BME280;47427;51.976;5.326;2023-03-29T00:13:48;101599.13;;;5.75;100.00
45403;BME280;47427;51.976;5.326;2023-03-29T00:17:11;101606.00;;;5.74;100.00
45403;BME280;47427;51.976;5.326;2023-03-29T00:20:34;101592.38;;;5.78;100.00
45403;BME280;47427;51.976;5.326;2023-03-29T00:23:58;101596.22;;;6.00;100.00
45403;BME280;47427;51.976;5.326;2023-03-29T00:27:21;101584.91;;;5.99;100.00
45403;BME280;47427;51.976;5.326;2023-03-29T00:30:44;101573.56;;;6.14;100.00
45403;BME280;47427;51.976;5.326;2023-03-29T00:34:07;101562.47;;;6.01;100.00
45403;BME280;47427;51.976;5.326;2023-03-29T00:37:29;101567.88;;;6.21;100.00
45403;BME280;47427;51.976;5.326;2023-03-29T00:40:52;101540.16;;;6.06;100.00
45403;BME280;47427;51.976;5.326;2023-03-29T00:44:59;101560.50;;;6.28;100.00
45403;BME280;47427;51.976;5.326;2023-03-29T00:48:41;101541.00;;;6.22;100.00
45403;BME280;47427;51.976;5.326;2023-03-29T00:52:05;101534.66;;;6.17;100.00
45403;BME280;47427;51.976;5.326;2023-03-29T00:55:34;101532.00;;;6.32;100.00
45403;BME280;47427;51.976;5.326;2023-03-29T00:59:09;101537.28;;;6.49;100.00
45403;BME280;47427;51.976;5.326;2023-03-29T01:02:34;101520.94;;;6.36;100.00
45403;BME280;47427;51.976;5.326;2023-03-29T01:06:05;101514.72;;;6.50;100.00
45403;BME280;47427;51.976;5.326;2023-03-29T01:09:31;101521.41;;;6.61;100.00
45403;BME280;47427;51.976;5.326;2023-03-29T01:13:02;101514.97;;;6.55;100.00
45403;BME280;47427;51.976;5.326;2023-03-29T01:16:27;101517.81;;;6.59;100.00
45403;BME280;47427;51.976;5.326;2023-03-29T01:19:58;101508.38;;;6.61;100.00
45403;BME280;47427;51.976;5.326;2023-03-29T01:27:59;101505.69;;;6.60;100.00
45403;BME280;47427;51.976;5.326;2023-03-29T01:31:36;101479.44;;;6.40;100.00
45403;BME280;47427;51.976;5.326;2023-03-29T01:38:59;101494.13;;;6.55;100.00
45403;BME280;47427;51.976;5.326;2023-03-29T01:42:53;101498.16;;;6.66;100.00
45403;BME280;47427;51.976;5.326;2023-03-29T01:46:42;101480.44;;;6.59;100.00
45403;BME280;47427;51.976;5.326;2023-03-29T01:50:51;101485.13;;;6.66;100.00
45403;BME280;47427;51.976;5.326;2023-03-29T01:54:04;101477.59;;;6.54;100.00
45403;BME280;47427;51.976;5.326;2023-03-29T01:57:28;101459.25;;;6.53;100.00
45403;BME280;47427;51.976;5.326;2023-03-29T02:00:53;101484.88;;;6.78;100.00
45403;BME280;47427;51.976;5.326;2023-03-29T02:04:27;101473.81;;;6.82;100.00
45403;BME280;47427;51.976;5.326;2023-03-29T02:07:51;101452.44;;;6.72;100.00
45403;BME280;47427;51.976;5.326;2023-03-29T02:11:14;101467.31;;;6.73;100.00
45403;BME280;47427;51.976;5.326;2023-03-29T02:14:36;101458.84;;;6.61;100.00
45403;BME280;47427;51.976;5.326;2023-03-29T02:18:01;101468.84;;;6.86;100.00
45403;BME280;47427;51.976;5.326;2023-03-29T02:22:10;101452.25;;;6.86;100.00
45403;BME280;47427;51.976;5.326;2023-03-29T02:25:08;101443.31;;;6.81;100.00
45403;BME280;47427;51.976;5.326;2023-03-29T02:28:34;101441.88;;;6.69;100.00
45403;BME280;47427;51.976;5.326;2023-03-29T02:32:09;101441.00;;;6.69;100.00
45403;BME280;47427;51.976;5.326;2023-03-29T02:35:38;101436.81;;;6.72;100.00
45403;BME280;47427;51.976;5.326;2023-03-29T02:39:02;101439.84;;;6.64;100.00
45403;BME280;47427;51.976;5.326;2023-03-29T02:42:27;101437.34;;;6.83;100.00
45403;BME280;47427;51.976;5.326;2023-03-29T02:45:51;101410.38;;;6.83;100.00
45403;BME280;47427;51.976;5.326;2023-03-29T02:49:14;101436.78;;;6.89;100.00
45403;BME280;47427;51.976;5.326;2023-03-29T02:52:42;101426.47;;;6.74;100.00
45403;BME280;47427;51.976;5.326;2023-03-29T02:56:07;101411.94;;;6.79;100.00
45403;BME280;47427;51.976;5.326;2023-03-29T02:59:30;101423.06;;;6.93;100.00
45403;BME280;47427;51.976;5.326;2023-03-29T03:02:53;101417.69;;;6.90;100.00
45403;BME280;47427;51.976;5.326;2023-03-29T03:06:16;101419.81;;;6.97;100.00
45403;BME280;47427;51.976;5.326;2023-03-29T03:09:39;101390.63;;;6.88;100.00
45403;BME280;47427;51.976;5.326;2023-03-29T03:13:03;101409.88;;;6.90;100.00
45403;BME280;47427;51.976;5.326;2023-03-29T03:16:27;101405.63;;;6.92;100.00
45403;BME280;47427;51.976;5.326;2023-03-29T03:19:49;101393.94;;;6.84;100.00
45403;BME280;47427;51.976;5.326;2023-03-29T03:23:12;101396.69;;;6.87;100.00
45403;BME280;47427;51.976;5.326;2023-03-29T03:26:35;101373.06;;;6.84;100.00
45403;BME280;47427;51.976;5.326;2023-03-29T03:29:59;101387.22;;;6.89;100.00
45403;BME280;47427;51.976;5.326;2023-03-29T03:33:40;101379.16;;;6.84;100.00
45403;BME280;47427;51.976;5.326;2023-03-29T03:37:17;101375.69;;;6.84;100.00
45403;BME280;47427;51.976;5.326;2023-03-29T03:40:38;101377.34;;;6.83;100.00
45403;BME280;47427;51.976;5.326;2023-03-29T03:44:01;101357.94;;;6.77;100.00
45403;BME280;47427;51.976;5.326;2023-03-29T03:47:23;101373.63;;;6.78;100.00
45403;BME280;47427;51.976;5.326;2023-03-29T03:50:53;101378.56;;;6.90;100.00
45403;BME280;47427;51.976;5.326;2023-03-29T03:54:16;101394.88;;;7.04;100.00
45403;BME280;47427;51.976;5.326;2023-03-29T03:57:57;101396.59;;;7.03;100.00
45403;BME280;47427;51.976;5.326;2023-03-29T04:01:18;101400.94;;;7.03;100.00
45403;BME280;47427;51.976;5.326;2023-03-29T04:04:52;101394.88;;;7.04;100.00
45403;BME280;47427;51.976;5.326;2023-03-29T04:08:20;101377.59;;;7.06;100.00
45403;BME280;47427;51.976;5.326;2023-03-29T04:12:03;101388.78;;;7.03;100.00
45403;BME280;47427;51.976;5.326;2023-03-29T04:15:26;101374.97;;;6.88;100.00
45403;BME280;47427;51.976;5.326;2023-03-29T04:18:57;101387.44;;;7.11;100.00
45403;BME280;47427;51.976;5.326;2023-03-29T04:22:20;101375.88;;;7.06;100.00
45403;BME280;47427;51.976;5.326;2023-03-29T04:25:43;101357.19;;;6.97;100.00
45403;BME280;47427;51.976;5.326;2023-03-29T04:29:40;101357.63;;;7.06;100.00
45403;BME280;47427;51.976;5.326;2023-03-29T04:33:13;101361.53;;;6.97;100.00
45403;BME280;47427;51.976;5.326;2023-03-29T04:36:38;101355.00;;;7.06;100.00
45403;BME280;47427;51.976;5.326;2023-03-29T04:40:09;101341.03;;;7.04;100.00
45403;BME280;47427;51.976;5.326;2023-03-29T04:43:56;101359.06;;;7.00;100.00
45403;BME280;47427;51.976;5.326;2023-03-29T04:47:22;101348.47;;;7.14;100.00
45403;BME280;47427;51.976;5.326;2023-03-29T04:51:10;101354.66;;;7.16;100.00
45403;BME280;47427;51.976;5.326;2023-03-29T04:54:32;101339.59;;;7.11;100.00
45403;BME280;47427;51.976;5.326;2023-03-29T04:58:00;101342.31;;;7.14;100.00
45403;BME280;47427;51.976;5.326;2023-03-29T05:01:28;101361.75;;;7.19;100.00
45403;BME280;47427;51.976;5.326;2023-03-29T05:04:53;101355.59;;;7.19;100.00
45403;BME280;47427;51.976;5.326;2023-03-29T05:08:15;101352.56;;;7.27;100.00
45403;BME280;47427;51.976;5.326;2023-03-29T05:11:55;101353.44;;;7.28;100.00
45403;BME280;47427;51.976;5.326;2023-03-29T05:15:20;101343.97;;;7.30;100.00
45403;BME280;47427;51.976;5.326;2023-03-29T05:18:44;101340.16;;;7.23;100.00
45403;BME280;47427;51.976;5.326;2023-03-29T05:22:07;101343.13;;;7.31;100.00
45403;BME280;47427;51.976;5.326;2023-03-29T05:25:30;101328.19;;;7.27;100.00
45403;BME280;47427;51.976;5.326;2023-03-29T05:29:12;101340.84;;;7.37;100.00
45403;BME280;47427;51.976;5.326;2023-03-29T05:32:36;101349.56;;;7.37;100.00
45403;BME280;47427;51.976;5.326;2023-03-29T05:36:08;101320.00;;;7.19;100.00
45403;BME280;47427;51.976;5.326;2023-03-29T05:39:34;101362.09;;;7.45;100.00
45403;BME280;47427;51.976;5.326;2023-03-29T05:42:58;101355.75;;;7.40;100.00
45403;BME280;47427;51.976;5.326;2023-03-29T05:46:43;101368.56;;;7.53;100.00
45403;BME280;47427;51.976;5.326;2023-03-29T05:50:10;101349.22;;;7.49;100.00
45403;BME280;47427;51.976;5.326;2023-03-29T05:53:33;101363.59;;;7.59;100.00
45403;BME280;47427;51.976;5.326;2023-03-29T05:57:04;101361.34;;;7.67;100.00
45403;BME280;47427;51.976;5.326;2023-03-29T06:00:35;101356.97;;;7.66;100.00
45403;BME280;47427;51.976;5.326;2023-03-29T06:04:15;101345.53;;;7.64;100.00
45403;BME280;47427;51.976;5.326;2023-03-29T06:07:49;101358.63;;;7.83;100.00
45403;BME280;47427;51.976;5.326;2023-03-29T06:11:40;101375.63;;;7.93;100.00
45403;BME280;47427;51.976;5.326;2023-03-29T06:15:03;101359.19;;;7.95;100.00
45403;BME280;47427;51.976;5.326;2023-03-29T06:18:37;101368.88;;;7.98;100.00
45403;BME280;47427;51.976;5.326;2023-03-29T06:22:00;101352.91;;;7.92;100.00
45403;BME280;47427;51.976;5.326;2023-03-29T06:25:27;101353.53;;;8.06;100.00
45403;BME280;47427;51.976;5.326;2023-03-29T06:28:49;101370.31;;;8.11;100.00
45403;BME280;47427;51.976;5.326;2023-03-29T06:32:11;101365.09;;;8.11;100.00
45403;BME280;47427;51.976;5.326;2023-03-29T06:36:00;101359.50;;;8.22;100.00
45403;BME280;47427;51.976;5.326;2023-03-29T06:39:23;101364.06;;;8.46;100.00
45403;BME280;47427;51.976;5.326;2023-03-29T06:43:09;101374.06;;;8.56;100.00
45403;BME280;47427;51.976;5.326;2023-03-29T06:46:47;101337.94;;;8.48;100.00
45403;BME280;47427;51.976;5.326;2023-03-29T06:50:10;101365.16;;;8.72;100.00
45403;BME280;47427;51.976;5.326;2023-03-29T06:53:52;101362.66;;;8.75;100.00
45403;BME280;47427;51.976;5.326;2023-03-29T06:57:14;101369.59;;;8.96;100.00
45403;BME280;47427;51.976;5.326;2023-03-29T07:00:36;101369.03;;;9.03;100.00
45403;BME280;47427;51.976;5.326;2023-03-29T07:04:12;101370.75;;;9.02;100.00
45403;BME280;47427;51.976;5.326;2023-03-29T07:08:04;101373.16;;;9.41;100.00
45403;BME280;47427;51.976;5.326;2023-03-29T07:11:44;101366.16;;;9.63;100.00
45403;BME280;47427;51.976;5.326;2023-03-29T07:15:18;101383.63;;;9.62;100.00
45403;BME280;47427;51.976;5.326;2023-03-29T07:18:58;101373.47;;;9.49;100.00
45403;BME280;47427;51.976;5.326;2023-03-29T07:22:41;101374.44;;;9.51;100.00
45403;BME280;47427;51.976;5.326;2023-03-29T07:26:05;101386.38;;;9.67;100.00
45403;BME280;47427;51.976;5.326;2023-03-29T07:29:29;101377.75;;;9.69;100.00
45403;BME280;47427;51.976;5.326;2023-03-29T07:32:52;101381.69;;;9.81;100.00
45403;BME280;47427;51.976;5.326;2023-03-29T07:36:22;101386.84;;;9.79;100.00
45403;BME280;47427;51.976;5.326;2023-03-29T07:39:46;101372.75;;;9.75;100.00
45403;BME280;47427;51.976;5.326;2023-03-29T07:43:34;101389.91;;;10.14;100.00
45403;BME280;47427;51.976;5.326;2023-03-29T07:46:56;101386.84;;;10.26;100.00
45403;BME280;47427;51.976;5.326;2023-03-29T07:50:21;101407.84;;;10.26;100.00
45403;BME280;47427;51.976;5.326;2023-03-29T07:53:43;101382.25;;;9.96;100.00
45403;BME280;47427;51.976;5.326;2023-03-29T07:57:45;101392.25;;;10.06;100.00
45403;BME280;47427;51.976;5.326;2023-03-29T08:01:07;101391.56;;;10.12;100.00
45403;BME280;47427;51.976;5.326;2023-03-29T08:04:48;101392.63;;;10.17;100.00
45403;BME280;47427;51.976;5.326;2023-03-29T08:08:46;101389.91;;;10.14;100.00
45403;BME280;47427;51.976;5.326;2023-03-29T08:12:11;101388.91;;;10.58;100.00
45403;BME280;47427;51.976;5.326;2023-03-29T08:15:35;101394.88;;;10.80;100.00
45403;BME280;47427;51.976;5.326;2023-03-29T08:18:59;101387.47;;;10.68;100.00
45403;BME280;47427;51.976;5.326;2023-03-29T08:22:36;101377.50;;;10.58;100.00
45403;BME280;47427;51.976;5.326;2023-03-29T08:26:17;101378.53;;;10.61;100.00
45403;BME280;47427;51.976;5.326;2023-03-29T08:29:39;101383.00;;;10.66;100.00
45403;BME280;47427;51.976;5.326;2023-03-29T08:33:02;101374.84;;;10.56;100.00
45403;BME280;47427;51.976;5.326;2023-03-29T08:36:25;101374.31;;;10.41;100.00
45403;BME280;47427;51.976;5.326;2023-03-29T08:39:52;101365.66;;;10.44;100.00
45403;BME280;47427;51.976;5.326;2023-03-29T08:44:08;101379.06;;;10.78;100.00
45403;BME280;47427;51.976;5.326;2023-03-29T08:51:37;101351.66;;;10.96;100.00
45403;BME280;47427;51.976;5.326;2023-03-29T08:55:06;101375.00;;;10.87;100.00
45403;BME280;47427;51.976;5.326;2023-03-29T08:58:55;101378.91;;;11.26;100.00
45403;BME280;47427;51.976;5.326;2023-03-29T09:02:24;101360.50;;;11.26;100.00
45403;BME280;47427;51.976;5.326;2023-03-29T09:06:06;101374.41;;;11.49;100.00
45403;BME280;47427;51.976;5.326;2023-03-29T09:09:32;101392.47;;;11.69;100.00
45403;BME280;47427;51.976;5.326;2023-03-29T09:17:20;101388.09;;;11.97;100.00
45403;BME280;47427;51.976;5.326;2023-03-29T09:25:11;101387.09;;;12.23;100.00
45403;BME280;47427;51.976;5.326;2023-03-29T09:32:41;101393.19;;;12.54;100.00
45403;BME280;47427;51.976;5.326;2023-03-29T09:36:24;101388.00;;;12.25;100.00
45403;BME280;47427;51.976;5.326;2023-03-29T09:39:50;101395.78;;;12.52;100.00
45403;BME280;47427;51.976;5.326;2023-03-29T09:43:18;101394.34;;;12.64;100.00
45403;BME280;47427;51.976;5.326;2023-03-29T09:46:53;101372.09;;;12.52;100.00
45403;BME280;47427;51.976;5.326;2023-03-29T09:50:28;101335.97;;;12.47;99.49
45403;BME280;47427;51.976;5.326;2023-03-29T09:53:56;101386.94;;;13.18;98.20
45403;BME280;47427;51.976;5.326;2023-03-29T09:57:33;101384.22;;;13.15;85.36
45403;BME280;47427;51.976;5.326;2023-03-29T10:01:15;101388.53;;;13.48;83.76
45403;BME280;47427;51.976;5.326;2023-03-29T10:04:42;101386.00;;;13.16;84.08
45403;BME280;47427;51.976;5.326;2023-03-29T10:08:19;101382.34;;;13.11;85.28
45403;BME280;47427;51.976;5.326;2023-03-29T10:11:50;101383.47;;;13.19;86.11
45403;BME280;47427;51.976;5.326;2023-03-29T10:15:13;101381.91;;;13.28;85.55
45403;BME280;47427;51.976;5.326;2023-03-29T10:18:40;101369.63;;;12.93;87.16
45403;BME280;47427;51.976;5.326;2023-03-29T10:22:18;101379.06;;;13.20;88.17
45403;BME280;47427;51.976;5.326;2023-03-29T10:25:42;101358.56;;;13.43;86.74
45403;BME280;47427;51.976;5.326;2023-03-29T10:29:06;101342.91;;;12.76;90.69
45403;BME280;47427;51.976;5.326;2023-03-29T10:32:34;101363.91;;;13.11;91.08
45403;BME280;47427;51.976;5.326;2023-03-29T10:35:59;101357.69;;;13.08;89.78
45403;BME280;47427;51.976;5.326;2023-03-29T10:39:28;101360.31;;;12.71;90.20
45403;BME280;47427;51.976;5.326;2023-03-29T10:43:00;101358.69;;;12.76;89.86
45403;BME280;47427;51.976;5.326;2023-03-29T10:46:41;101360.59;;;12.82;91.18
45403;BME280;47427;51.976;5.326;2023-03-29T10:50:05;101358.31;;;12.61;91.17
45403;BME280;47427;51.976;5.326;2023-03-29T10:53:31;101349.28;;;12.53;91.83
45403;BME280;47427;51.976;5.326;2023-03-29T10:56:55;101340.13;;;12.72;91.79
45403;BME280;47427;51.976;5.326;2023-03-29T11:00:31;101333.97;;;13.08;90.76
45403;BME280;47427;51.976;5.326;2023-03-29T11:19:49;101312.25;;;12.80;91.63
45403;BME280;47427;51.976;5.326;2023-03-29T11:23:56;101321.19;;;12.87;92.39
45403;BME280;47427;51.976;5.326;2023-03-29T11:31:39;101301.91;;;14.09;87.45
45403;BME280;47427;51.976;5.326;2023-03-29T11:36:04;101316.63;;;14.45;86.23
45403;BME280;47427;51.976;5.326;2023-03-29T11:43:38;101328.59;;;14.24;86.34
45403;BME280;47427;51.976;5.326;2023-03-29T11:47:13;101337.34;;;13.78;88.90
45403;BME280;47427;51.976;5.326;2023-03-29T11:50:56;101331.81;;;13.65;90.02
45403;BME280;47427;51.976;5.326;2023-03-29T11:54:28;101339.00;;;13.74;89.55
45403;BME280;47427;51.976;5.326;2023-03-29T11:58:10;101329.44;;;13.78;89.53
45403;BME280;47427;51.976;5.326;2023-03-29T12:01:47;101328.97;;;13.99;89.79
45403;BME280;47427;51.976;5.326;2023-03-29T12:05:34;101327.63;;;13.75;90.27
45403;BME280;47427;51.976;5.326;2023-03-29T12:09:08;101318.69;;;13.69;91.65
45403;BME280;47427;51.976;5.326;2023-03-29T12:16:50;101319.13;;;13.48;93.43
45403;BME280;47427;51.976;5.326;2023-03-29T12:20:23;101327.78;;;13.04;95.17
45403;BME280;47427;51.976;5.326;2023-03-29T12:23:52;101332.66;;;12.89;96.85
45403;BME280;47427;51.976;5.326;2023-03-29T12:27:29;101320.50;;;12.94;96.90
45403;BME280;47427;51.976;5.326;2023-03-29T12:39:18;101311.47;;;13.60;94.48
45403;BME280;47427;51.976;5.326;2023-03-29T12:43:04;101304.63;;;13.68;93.27
45403;BME280;47427;51.976;5.326;2023-03-29T12:46:45;101295.47;;;13.95;91.43
45403;BME280;47427;51.976;5.326;2023-03-29T12:50:36;101277.13;;;14.49;90.44
45403;BME280;47427;51.976;5.326;2023-03-29T12:57:56;101257.63;;;14.96;86.19
45403;BME280;47427;51.976;5.326;2023-03-29T13:01:34;101250.50;;;14.90;86.71
45403;BME280;47427;51.976;5.326;2023-03-29T13:04:58;101254.47;;;15.20;85.17
45403;BME280;47427;51.976;5.326;2023-03-29T13:08:41;101249.91;;;15.10;85.32
45403;BME280;47427;51.976;5.326;2023-03-29T13:15:37;101239.47;;;15.21;84.45
45403;BME280;47427;51.976;5.326;2023-03-29T13:35:05;101211.00;;;16.66;75.86
45403;BME280;47427;51.976;5.326;2023-03-29T13:38:47;101207.25;;;16.36;77.08
45403;BME280;47427;51.976;5.326;2023-03-29T13:49:19;101196.03;;;16.69;77.04
45403;BME280;47427;51.976;5.326;2023-03-29T13:52:58;101195.84;;;16.48;74.55
45403;BME280;47427;51.976;5.326;2023-03-29T13:57:11;101191.06;;;16.01;77.79
45403;BME280;47427;51.976;5.326;2023-03-29T14:00:18;101185.09;;;16.25;77.14
45403;BME280;47427;51.976;5.326;2023-03-29T14:03:47;101173.78;;;16.44;76.21
45403;BME280;47427;51.976;5.326;2023-03-29T14:07:13;101165.75;;;16.35;76.11
45403;BME280;47427;51.976;5.326;2023-03-29T14:10:43;101157.81;;;16.37;75.82
45403;BME280;47427;51.976;5.326;2023-03-29T14:14:28;101165.91;;;16.55;75.46
45403;BME280;47427;51.976;5.326;2023-03-29T14:17:57;101168.47;;;16.44;75.02
45403;BME280;47427;51.976;5.326;2023-03-29T14:21:20;101152.66;;;16.55;75.54
45403;BME280;47427;51.976;5.326;2023-03-29T14:24:50;101150.22;;;16.87;73.42
45403;BME280;47427;51.976;5.326;2023-03-29T14:28:23;101150.25;;;16.94;71.87
45403;BME280;47427;51.976;5.326;2023-03-29T14:31:45;101142.34;;;17.00;71.97
45403;BME280;47427;51.976;5.326;2023-03-29T14:35:08;101146.69;;;16.84;72.30
45403;BME280;47427;51.976;5.326;2023-03-29T14:38:35;101120.13;;;16.78;72.96
45403;BME280;47427;51.976;5.326;2023-03-29T14:41:59;101119.28;;;16.80;72.62
45403;BME280;47427;51.976;5.326;2023-03-29T14:45:22;101110.53;;;17.03;72.62
45403;BME280;47427;51.976;5.326;2023-03-29T14:48:45;101102.63;;;17.14;72.27
45403;BME280;47427;51.976;5.326;2023-03-29T14:52:09;101109.63;;;16.98;71.50
45403;BME280;47427;51.976;5.326;2023-03-29T14:55:34;101101.53;;;16.73;72.43
45403;BME280;47427;51.976;5.326;2023-03-29T14:58:57;101099.78;;;16.77;72.37
45403;BME280;47427;51.976;5.326;2023-03-29T15:02:31;101092.75;;;16.80;72.10
45403;BME280;47427;51.976;5.326;2023-03-29T15:06:01;101086.66;;;17.01;71.64
45403;BME280;47427;51.976;5.326;2023-03-29T15:09:33;101080.50;;;17.05;71.76
45403;BME280;47427;51.976;5.326;2023-03-29T15:12:56;101077.97;;;17.42;70.50
45403;BME280;47427;51.976;5.326;2023-03-29T15:16:20;101077.88;;;17.16;70.60
45403;BME280;47427;51.976;5.326;2023-03-29T15:19:42;101075.16;;;16.95;72.01
45403;BME280;47427;51.976;5.326;2023-03-29T15:23:22;101059.09;;;16.59;72.97
45403;BME280;47427;51.976;5.326;2023-03-29T15:26:44;101054.69;;;16.64;74.12
45403;BME280;47427;51.976;5.326;2023-03-29T15:30:14;101056.31;;;16.38;74.21
45403;BME280;47427;51.976;5.326;2023-03-29T15:33:39;101062.38;;;16.20;75.28
45403;BME280;47427;51.976;5.326;2023-03-29T15:37:01;101059.69;;;16.11;75.62
45403;BME280;47427;51.976;5.326;2023-03-29T15:40:25;101057.81;;;15.93;76.92
45403;BME280;47427;51.976;5.326;2023-03-29T15:43:49;101039.28;;;15.96;77.36
45403;BME280;47427;51.976;5.326;2023-03-29T15:47:12;101048.09;;;15.96;78.01
45403;BME280;47427;51.976;5.326;2023-03-29T15:50:34;101040.09;;;15.82;78.37
45403;BME280;47427;51.976;5.326;2023-03-29T15:53:58;101021.50;;;15.79;78.43
45403;BME280;47427;51.976;5.326;2023-03-29T15:57:22;101016.16;;;15.70;79.23
45403;BME280;47427;51.976;5.326;2023-03-29T16:01:06;101003.59;;;15.49;80.47
45403;BME280;47427;51.976;5.326;2023-03-29T16:04:32;100998.28;;;15.43;81.03
45403;BME280;47427;51.976;5.326;2023-03-29T16:07:55;101004.31;;;15.31;81.60
45403;BME280;47427;51.976;5.326;2023-03-29T16:11:17;100998.00;;;15.14;82.25
45403;BME280;47427;51.976;5.326;2023-03-29T16:14:39;100993.53;;;15.08;83.31
45403;BME280;47427;51.976;5.326;2023-03-29T16:18:21;100984.72;;;15.05;84.24
45403;BME280;47427;51.976;5.326;2023-03-29T16:21:44;100972.34;;;15.02;85.41
45403;BME280;47427;51.976;5.326;2023-03-29T16:25:16;100963.53;;;15.02;85.30
45403;BME280;47427;51.976;5.326;2023-03-29T16:28:38;100956.41;;;14.96;86.20
45403;BME280;47427;51.976;5.326;2023-03-29T16:32:02;100945.69;;;14.79;87.62
45403;BME280;47427;51.976;5.326;2023-03-29T16:35:31;100942.22;;;14.82;88.61
45403;BME280;47427;51.976;5.326;2023-03-29T16:38:53;100928.09;;;14.80;88.65
45403;BME280;47427;51.976;5.326;2023-03-29T16:42:15;100921.81;;;14.70;89.36
45403;BME280;47427;51.976;5.326;2023-03-29T16:45:37;100924.41;;;14.64;90.13
45403;BME280;47427;51.976;5.326;2023-03-29T16:49:00;100928.72;;;14.57;91.33
45403;BME280;47427;51.976;5.326;2023-03-29T16:52:23;100921.44;;;14.39;92.33
45403;BME280;47427;51.976;5.326;2023-03-29T16:55:45;100916.13;;;14.35;93.34
45403;BME280;47427;51.976;5.326;2023-03-29T16:59:08;100920.66;;;14.48;93.38
45403;BME280;47427;51.976;5.326;2023-03-29T17:02:31;100918.19;;;14.59;92.86
45403;BME280;47427;51.976;5.326;2023-03-29T17:05:53;100892.34;;;14.35;93.00
45403;BME280;47427;51.976;5.326;2023-03-29T17:09:15;100902.00;;;14.32;93.79
45403;BME280;47427;51.976;5.326;2023-03-29T17:12:38;100885.84;;;14.05;94.88
45403;BME280;47427;51.976;5.326;2023-03-29T17:16:01;100893.81;;;14.09;94.93
45403;BME280;47427;51.976;5.326;2023-03-29T17:19:24;100904.41;;;14.13;95.21
45403;BME280;47427;51.976;5.326;2023-03-29T17:22:46;100891.19;;;14.09;95.21
45403;BME280;47427;51.976;5.326;2023-03-29T17:26:31;100873.44;;;13.96;95.97
45403;BME280;47427;51.976;5.326;2023-03-29T17:29:54;100881.34;;;13.96;95.97
45403;BME280;47427;51.976;5.326;2023-03-29T17:33:17;100874.03;;;13.77;97.04
45403;BME280;47427;51.976;5.326;2023-03-29T17:36:44;100858.16;;;13.71;97.56
45403;BME280;47427;51.976;5.326;2023-03-29T17:40:06;100865.22;;;13.73;97.75
45403;BME280;47427;51.976;5.326;2023-03-29T17:43:36;100858.13;;;13.68;98.28
45403;BME280;47427;51.976;5.326;2023-03-29T17:46:59;100859.75;;;13.58;98.68
45403;BME280;47427;51.976;5.326;2023-03-29T17:50:23;100868.44;;;13.52;99.42
45403;BME280;47427;51.976;5.326;2023-03-29T17:53:46;100865.75;;;13.48;99.91
45403;BME280;47427;51.976;5.326;2023-03-29T17:57:07;100861.19;;;13.37;100.00
45403;BME280;47427;51.976;5.326;2023-03-29T18:00:30;100861.16;;;13.34;100.00
45403;BME280;47427;51.976;5.326;2023-03-29T18:03:53;100858.31;;;13.23;100.00
45403;BME280;47427;51.976;5.326;2023-03-29T18:07:16;100869.72;;;13.22;100.00
45403;BME280;47427;51.976;5.326;2023-03-29T18:10:39;100853.72;;;13.10;100.00
45403;BME280;47427;51.976;5.326;2023-03-29T18:14:02;100851.75;;;12.98;100.00
45403;BME280;47427;51.976;5.326;2023-03-29T18:17:25;100857.81;;;12.93;100.00
45403;BME280;47427;51.976;5.326;2023-03-29T18:20:48;100840.13;;;12.84;100.00
45403;BME280;47427;51.976;5.326;2023-03-29T18:24:10;100826.72;;;12.69;100.00
45403;BME280;47427;51.976;5.326;2023-03-29T18:27:33;100834.44;;;12.60;100.00
45403;BME280;47427;51.976;5.326;2023-03-29T18:30:56;100832.53;;;12.51;100.00
45403;BME280;47427;51.976;5.326;2023-03-29T18:34:17;100819.84;;;12.30;100.00
45403;BME280;47427;51.976;5.326;2023-03-29T18:37:40;100829.47;;;12.28;100.00
45403;BME280;47427;51.976;5.326;2023-03-29T18:41:03;100831.06;;;12.20;100.00
45403;BME280;47427;51.976;5.326;2023-03-29T18:44:25;100825.84;;;12.21;100.00
45403;BME280;47427;51.976;5.326;2023-03-29T18:47:48;100832.72;;;12.13;100.00
45403;BME280;47427;51.976;5.326;2023-03-29T18:51:12;100823.84;;;12.09;100.00
45403;BME280;47427;51.976;5.326;2023-03-29T18:54:34;100819.69;;;12.21;100.00
45403;BME280;47427;51.976;5.326;2023-03-29T18:57:57;100834.91;;;12.37;100.00
45403;BME280;47427;51.976;5.326;2023-03-29T19:01:18;100827.16;;;12.45;100.00
45403;BME280;47427;51.976;5.326;2023-03-29T19:05:01;100829.00;;;12.49;100.00
45403;BME280;47427;51.976;5.326;2023-03-29T19:08:42;100821.94;;;12.46;100.00
45403;BME280;47427;51.976;5.326;2023-03-29T19:12:05;100822.84;;;12.48;100.00
45403;BME280;47427;51.976;5.326;2023-03-29T19:15:27;100817.38;;;12.38;100.00
45403;BME280;47427;51.976;5.326;2023-03-29T19:18:49;100812.19;;;12.41;100.00
45403;BME280;47427;51.976;5.326;2023-03-29T19:22:12;100806.00;;;12.39;100.00
45403;BME280;47427;51.976;5.326;2023-03-29T19:25:35;100812.06;;;12.34;100.00
45403;BME280;47427;51.976;5.326;2023-03-29T19:28:56;100817.28;;;12.33;100.00
45403;BME280;47427;51.976;5.326;2023-03-29T19:32:19;100798.91;;;12.34;100.00
45403;BME280;47427;51.976;5.326;2023-03-29T19:35:42;100790.97;;;12.33;100.00
45403;BME280;47427;51.976;5.326;2023-03-29T19:39:04;100776.69;;;12.19;100.00
45403;BME280;47427;51.976;5.326;2023-03-29T19:42:27;100759.91;;;12.10;100.00